This is the latest recevied weather packets stored in our database for station/object DO7VLR-5. If no packets are shown the sender has not sent any weather packets the latest 10 day(s).
| Time | Temp. | Humidity | Pressure | Rain* | Wind** | Luminosity | Snow |
|---|---|---|---|---|---|---|---|
| 1777878017 | 12.78° C | 77% | 1013.8 hPa | 0 mm | - | - | - |
| 1777876216 | 10° C | 84% | 1013.7 hPa | 0 mm | - | - | - |
| 1777874417 | 8.33° C | 88% | 1013.6 hPa | 0 mm | - | - | - |
| 1777872617 | 7.78° C | 89% | 1013.7 hPa | 0 mm | - | - | - |
| 1777870817 | 7.22° C | 90% | 1013.5 hPa | 0 mm | - | - | - |
| 1777869016 | 6.11° C | 92% | 1013.6 hPa | 0 mm | - | - | - |
| 1777867217 | 6.11° C | 92% | 1013.5 hPa | 0 mm | - | - | - |
| 1777865416 | 6.11° C | 92% | 1013.8 hPa | 0 mm | - | - | - |
| 1777863616 | 6.67° C | 90% | 1014.1 hPa | 0 mm | - | - | - |
| 1777861816 | 6.67° C | 90% | 1013.8 hPa | 0 mm | - | - | - |
| 1777860016 | 7.22° C | 90% | 1013.8 hPa | 0 mm | - | - | - |
| 1777858216 | 7.22° C | 88% | 1014 hPa | 0 mm | - | - | - |
| 1777856416 | 7.78° C | 87% | 1014 hPa | 0 mm | - | - | - |
| 1777854616 | 8.33° C | 88% | 1013.8 hPa | 0 mm | - | - | - |
| 1777852816 | 8.33° C | 86% | 1014.1 hPa | 0 mm | - | - | - |
| 1777851016 | 8.89° C | 85% | 1013.9 hPa | 0 mm | - | - | - |
| 1777849215 | 9.44° C | 83% | 1014.1 hPa | 0 mm | - | - | - |
| 1777847416 | 9.44° C | 82% | 1013.9 hPa | 0 mm | - | - | - |
| 1777845616 | 10° C | 80% | 1013.8 hPa | 0 mm | - | - | - |
| 1777843816 | 10.56° C | 79% | 1013.9 hPa | 0 mm | - | - | - |
| 1777842016 | 11.11° C | 76% | 1013.9 hPa | 0 mm | - | - | - |
| 1777840216 | 11.67° C | 74% | 1014 hPa | 0 mm | - | - | - |
| 1777838416 | 12.22° C | 71% | 1013.8 hPa | 0 mm | - | - | - |
| 1777836616 | 13.33° C | 67% | 1013.8 hPa | 0 mm | - | - | - |
| 1777834816 | 15° C | 60% | 1013.8 hPa | 0 mm | - | - | - |
* Rain latest hour (hover to see other rain measurements)
** Current wind speed in m/s (hover to see current wind gust speed)